Sumner, Michigan
Current Conditions -  °F | °C
As of 1:35 PM on Thursday 30 Oct 2014 (Local Time) from KAMN Reporting Station
Overcast Overcast  
Wind Chill:   Ceiling: 4600
Heat Index:   Visibility: 10mi
Dew Point:   Wind: 8mph
Humidity: 67%   Direction: 230°SW
Pressure: 30.09"   Gusts: NA
Location:  43.31°N, 84.82°W
Report Text: KAMN 301735Z AUTO 23007KT 10SM SCT036 OVC046 09/04 A3009 RMK AO2 T00940035
Loading
Personal Weather Stations






























Interactive Weather Map
Tropical Storm Tracking
New forecast layout! Learn more

10-Day Weather Forecast

Advertisements
Track Severe Weather on mobile